Time;durP1;ratioP1;P1;durP2;ratioP2;P2;SDS_P1;SDS_P2;PMS_P1;PMS_P2;Temp;Humidity;BMP_temperature;BMP_pressure;BME280_temperature;BME280_humidity;BME280_pressure;Samples;Min_cycle;Max_cycle;Signal;HPM_P1;HPM_P2
2022/05/05 00:07:32;;;;;;;9.73;5.67;;;14.90;98.30;;;;;;21082498;28;20686;-62
2022/05/05 00:17:34;;;;;;;6.50;5.30;;;14.90;98.30;;;;;;21090332;28;20302;-68
2022/05/05 00:27:36;;;;;;;6.47;5.77;;;15.00;98.30;;;;;;21089411;28;20236;-67
2022/05/05 00:37:37;;;;;;;8.77;7.77;;;15.00;98.20;;;;;;21090353;28;20739;-66
2022/05/05 00:47:39;;;;;;;11.20;9.23;;;15.00;98.20;;;;;;21088167;28;20724;-69
2022/05/05 00:57:43;;;;;;;13.20;10.97;;;14.80;98.20;;;;;;21087686;28;20629;-63
2022/05/05 01:07:46;;;;;;;12.93;10.33;;;14.60;98.50;;;;;;21086467;28;20245;-61
2022/05/05 01:17:47;;;;;;;14.83;10.53;;;14.60;98.80;;;;;;21084768;28;20246;-63
2022/05/05 01:38:12;;;;;;;15.97;11.63;;;14.40;99.20;;;;;;21084008;28;20206;-62
2022/05/05 01:48:14;;;;;;;14.53;11.90;;;14.60;99.50;;;;;;21083323;28;20238;-64
2022/05/05 01:58:16;;;;;;;14.63;11.87;;;14.60;99.60;;;;;;21082121;28;20202;-62
2022/05/05 02:08:17;;;;;;;12.57;11.03;;;14.60;99.60;;;;;;21081314;28;20246;-62
2022/05/05 02:29:42;;;;;;;12.23;9.67;;;14.50;99.70;;;;;;21079716;28;20224;-62
2022/05/05 02:39:44;;;;;;;12.57;10.77;;;14.50;99.90;;;;;;21079271;28;20212;-63
2022/05/05 02:49:45;;;;;;;12.97;11.17;;;14.50;99.90;;;;;;21079142;28;20294;-64
2022/05/05 02:59:47;;;;;;;12.50;9.57;;;14.60;99.90;;;;;;21078686;28;20657;-65
2022/05/05 03:09:49;;;;;;;11.03;9.67;;;14.50;99.90;;;;;;21077764;28;20232;-62
2022/05/05 03:19:51;;;;;;;15.20;9.80;;;14.30;99.90;;;;;;21077800;28;20242;-65
2022/05/05 03:29:53;;;;;;;15.03;10.80;;;14.30;99.90;;;;;;21077296;28;20317;-62
2022/05/05 03:39:56;;;;;;;14.00;10.53;;;14.20;99.90;;;;;;21079873;28;20297;-62
2022/05/05 03:49:58;;;;;;;13.47;9.87;;;14.20;99.90;;;;;;21092756;28;20709;-62
2022/05/05 04:00:00;;;;;;;11.47;9.30;;;14.20;99.90;;;;;;21091820;28;20204;-63
2022/05/05 04:10:02;;;;;;;12.20;10.53;;;14.30;99.90;;;;;;21090967;28;20254;-62
2022/05/05 04:20:04;;;;;;;10.77;9.60;;;14.20;99.90;;;;;;21090217;28;20703;-62
2022/05/05 04:30:08;;;;;;;11.50;10.07;;;14.20;99.90;;;;;;21087999;28;20288;-62
2022/05/05 04:40:10;;;;;;;11.93;10.57;;;14.10;99.90;;;;;;21087731;28;20199;-62
2022/05/05 04:50:12;;;;;;;15.47;13.17;;;14.20;99.90;;;;;;21085928;28;20234;-64
2022/05/05 05:00:14;;;;;;;26.83;15.17;;;14.10;99.90;;;;;;21086831;28;20212;-68
2022/05/05 05:10:16;;;;;;;22.10;14.33;;;14.10;99.90;;;;;;21086974;28;20238;-62
2022/05/05 05:20:17;;;;;;;18.77;14.00;;;14.10;99.90;;;;;;21088172;28;20705;-61
2022/05/05 05:30:19;;;;;;;20.63;14.07;;;13.90;99.90;;;;;;21109326;28;20242;-61
2022/05/05 05:40:21;;;;;;;18.00;13.83;;;14.00;99.90;;;;;;21085652;28;20209;-62
2022/05/05 05:50:23;;;;;;;20.60;14.07;;;14.00;99.90;;;;;;21082789;28;20245;-64
2022/05/05 06:00:25;;;;;;;19.30;13.20;;;14.30;99.90;;;;;;21081191;28;20213;-62
2022/05/05 06:10:27;;;;;;;18.50;15.27;;;14.40;99.90;;;;;;21081304;28;20237;-63
2022/05/05 06:20:29;;;;;;;20.77;16.37;;;14.50;99.90;;;;;;21082217;28;20292;-63
2022/05/05 06:30:31;;;;;;;16.70;13.73;;;14.50;99.90;;;;;;21087246;28;20237;-63
2022/05/05 06:40:34;;;;;;;13.00;11.17;;;14.70;99.90;;;;;;21079151;28;20586;-65
2022/05/05 06:50:36;;;;;;;12.63;11.33;;;14.90;99.70;;;;;;21078245;28;20657;-63
2022/05/05 07:10:58;;;;;;;16.37;11.80;;;15.50;99.00;;;;;;21077890;28;20263;-65
2022/05/05 07:21:00;;;;;;;15.17;11.93;;;15.50;98.50;;;;;;21089977;28;20258;-63
2022/05/05 07:31:01;;;;;;;12.50;10.10;;;15.80;98.40;;;;;;21092109;28;20279;-63
2022/05/05 07:41:03;;;;;;;10.53;9.43;;;16.30;98.00;;;;;;21093270;28;20214;-61
2022/05/05 07:51:05;;;;;;;24.43;10.53;;;16.30;97.10;;;;;;21092019;28;20297;-63
2022/05/05 08:01:07;;;;;;;10.27;8.40;;;16.50;96.80;;;;;;21091199;28;20601;-65
2022/05/05 08:11:09;;;;;;;12.47;8.77;;;16.70;96.40;;;;;;21089474;28;20664;-62
2022/05/05 08:21:11;;;;;;;11.03;7.83;;;17.10;95.90;;;;;;21088619;28;20248;-64
2022/05/05 08:31:13;;;;;;;10.73;8.27;;;17.20;95.20;;;;;;21088085;28;20642;-63
2022/05/05 08:41:15;;;;;;;13.10;7.40;;;17.30;94.70;;;;;;21087291;28;20773;-62
2022/05/05 08:51:19;;;;;;;14.50;7.20;;;17.30;94.40;;;;;;21086803;28;20262;-66
2022/05/05 09:01:21;;;;;;;10.00;6.67;;;17.60;94.30;;;;;;21087420;28;20730;-63
2022/05/05 09:11:23;;;;;;;9.33;6.00;;;17.90;93.60;;;;;;21085611;28;20240;-62
2022/05/05 09:21:34;;;;;;;16.60;6.30;;;18.10;93.20;;;;;;21085593;28;20227;-64
2022/05/05 09:31:38;;;;;;;8.00;5.73;;;18.60;92.40;;;;;;21085779;28;20605;-62
2022/05/05 09:41:45;;;;;;;11.73;8.70;;;18.90;91.60;;;;;;21083514;28;20300;-62
2022/05/05 10:03:59;;;;;;;23.77;17.93;;;19.00;90.20;;;;;;21082887;28;20208;-62
2022/05/05 10:12:40;;;;;;;6.60;5.17;;;19.30;88.90;;;;;;21107203;28;20265;-62
2022/05/05 10:23:03;;;;;;;10.03;7.13;;;19.50;86.90;;;;;;21084547;28;20278;-62
2022/05/05 10:33:08;;;;;;;8.40;5.10;;;19.60;84.90;;;;;;21073024;28;20255;-62
2022/05/05 10:43:10;;;;;;;6.27;3.70;;;19.80;82.70;;;;;;21078348;28;20213;-63
2022/05/05 10:53:37;;;;;;;4.10;3.70;;;20.20;80.50;;;;;;21076065;28;20262;-63
2022/05/05 11:04:17;;;;;;;5.73;3.90;;;20.10;78.60;;;;;;21069322;28;20224;-64
2022/05/05 11:24:56;;;;;;;6.27;3.60;;;20.30;76.50;;;;;;21076893;28;20700;-63
2022/05/05 11:35:00;;;;;;;5.77;4.17;;;20.60;74.50;;;;;;21075539;28;20609;-62
2022/05/05 11:45:05;;;;;;;10.57;4.77;;;20.90;72.50;;;;;;21083226;28;20237;-62
2022/05/05 11:55:09;;;;;;;17.00;11.10;;;21.30;70.50;;;;;;21098804;28;20202;-64
2022/05/05 12:05:11;;;;;;;11.73;8.73;;;21.30;68.50;;;;;;21070195;28;20329;-65
2022/05/05 12:15:16;;;;;;;9.73;7.37;;;21.40;68.80;;;;;;21019278;28;20231;-63
2022/05/05 12:25:18;;;;;;;17.67;13.10;;;21.20;68.40;;;;;;21002242;28;20235;-63
2022/05/05 12:35:31;;;;;;;10.50;6.50;;;21.10;68.20;;;;;;21005266;28;20210;-63
2022/05/05 12:45:34;;;;;;;11.80;6.93;;;20.90;67.90;;;;;;21005504;28;20231;-63
2022/05/05 13:05:58;;;;;;;10.47;8.27;;;20.90;67.80;;;;;;21002754;28;20248;-63
2022/05/05 13:16:20;;;;;;;9.80;6.20;;;20.80;67.50;;;;;;21000453;28;20234;-65
2022/05/05 13:26:22;;;;;;;9.10;5.60;;;21.00;67.40;;;;;;21000260;28;20237;-62
2022/05/05 13:36:23;;;;;;;8.20;6.00;;;20.90;66.10;;;;;;20999262;28;20206;-65
2022/05/05 13:46:25;;;;;;;11.07;5.97;;;20.90;66.70;;;;;;20998444;28;20647;-62
2022/05/05 13:56:27;;;;;;;10.33;6.93;;;20.50;66.60;;;;;;20997526;28;20730;-62
2022/05/05 14:06:29;;;;;;;18.83;13.77;;;20.20;67.00;;;;;;20997578;28;20241;-64
2022/05/05 14:16:31;;;;;;;7.87;6.33;;;20.00;67.20;;;;;;20997740;28;20601;-62
2022/05/05 14:26:34;;;;;;;9.27;6.33;;;19.90;67.70;;;;;;20995236;28;20271;-61
2022/05/05 14:36:36;;;;;;;10.93;6.20;;;19.70;68.00;;;;;;20995042;28;20201;-67
2022/05/05 14:46:38;;;;;;;10.57;7.00;;;19.50;67.90;;;;;;20996014;28;20682;-66
2022/05/05 14:56:40;;;;;;;10.17;7.60;;;19.00;73.30;;;;;;20994284;28;20208;-68
2022/05/05 15:06:42;;;;;;;13.73;9.57;;;18.70;76.30;;;;;;21000482;28;20320;-66
2022/05/05 15:16:43;;;;;;;16.37;9.70;;;18.30;81.70;;;;;;20995165;28;20228;-70
2022/05/05 15:26:46;;;;;;;12.53;9.40;;;17.90;86.60;;;;;;20992910;28;20232;-71
2022/05/05 15:36:48;;;;;;;15.73;9.50;;;17.60;90.00;;;;;;20997307;28;20214;-71
2022/05/05 15:46:50;;;;;;;16.73;10.17;;;17.40;91.00;;;;;;21008370;28;20719;-69
2022/05/05 15:56:51;;;;;;;15.77;11.13;;;17.30;91.90;;;;;;21007035;28;20252;-68
2022/05/05 16:06:53;;;;;;;14.60;10.77;;;17.00;93.10;;;;;;21005729;28;20294;-69
2022/05/05 16:16:59;;;;;;;13.37;9.30;;;17.00;94.20;;;;;;21003209;28;20239;-67
2022/05/05 16:37:22;;;;;;;13.07;9.57;;;17.10;95.40;;;;;;21003921;28;20601;-71
2022/05/05 16:47:24;;;;;;;13.20;10.23;;;17.10;96.10;;;;;;21001972;28;20238;-71
2022/05/05 16:57:27;;;;;;;13.23;11.10;;;17.20;96.40;;;;;;21001993;28;20202;-69
2022/05/05 17:07:28;;;;;;;16.23;10.73;;;17.30;96.90;;;;;;21002353;28;20588;-70
2022/05/05 17:17:30;;;;;;;14.60;10.60;;;17.30;97.30;;;;;;21025441;28;20307;-71
2022/05/05 17:27:32;;;;;;;12.73;9.77;;;17.40;97.40;;;;;;21067136;28;20594;-71
2022/05/05 17:37:34;;;;;;;18.37;11.17;;;17.40;97.30;;;;;;21003525;28;20730;-66
2022/05/05 17:57:58;;;;;;;25.10;16.07;;;17.20;97.60;;;;;;21081601;28;20224;-68
2022/05/05 18:08:00;;;;;;;14.53;11.77;;;17.20;98.00;;;;;;21078839;28;20283;-72
2022/05/05 18:18:02;;;;;;;19.67;14.70;;;17.00;98.40;;;;;;21081203;28;20321;-71
2022/05/05 18:28:04;;;;;;;44.03;24.73;;;16.90;98.80;;;;;;21076351;28;20234;-66
2022/05/05 18:38:06;;;;;;;25.77;16.00;;;16.90;99.10;;;;;;21077324;28;20207;-65
2022/05/05 18:48:08;;;;;;;20.70;12.97;;;16.80;99.40;;;;;;21077007;28;20234;-66
2022/05/05 18:58:10;;;;;;;20.63;15.33;;;16.70;99.80;;;;;;21076171;28;20206;-69
2022/05/05 19:08:11;;;;;;;14.90;13.30;;;16.50;99.90;;;;;;21075404;28;20245;-66
2022/05/05 19:18:13;;;;;;;37.80;19.67;;;16.30;99.90;;;;;;21101931;28;20241;-65
2022/05/05 19:28:15;;;;;;;24.57;15.37;;;16.20;99.90;;;;;;21096877;28;20233;-70
2022/05/05 19:38:19;;;;;;;19.33;13.10;;;16.10;99.90;;;;;;21049688;28;20257;-72
2022/05/05 19:48:21;;;;;;;17.67;14.10;;;15.90;99.90;;;;;;21053895;28;20237;-68
2022/05/05 20:08:43;;;;;;;24.83;14.60;;;15.80;99.90;;;;;;21004967;28;20379;-67
2022/05/05 20:18:45;;;;;;;19.07;15.10;;;15.70;99.90;;;;;;21005225;28;20235;-67
2022/05/05 20:28:48;;;;;;;18.97;14.13;;;15.50;99.90;;;;;;21004020;28;20268;-69
2022/05/05 20:38:50;;;;;;;18.93;14.80;;;15.40;99.90;;;;;;21003401;28;20662;-70
2022/05/05 20:48:52;;;;;;;18.77;14.83;;;15.30;99.90;;;;;;21002948;28;20316;-66
2022/05/05 20:58:54;;;;;;;18.90;13.60;;;15.30;99.90;;;;;;21002181;28;20268;-66
2022/05/05 21:08:55;;;;;;;18.93;13.13;;;15.20;99.90;;;;;;21001021;28;20242;-66
2022/05/05 21:18:57;;;;;;;16.90;11.13;;;15.10;99.90;;;;;;20999966;28;20302;-70
2022/05/05 21:29:00;;;;;;;15.20;9.83;;;15.10;99.90;;;;;;20999327;28;20239;-68
2022/05/05 21:39:02;;;;;;;17.50;9.37;;;15.00;99.90;;;;;;20997589;28;20210;-66
2022/05/05 21:49:04;;;;;;;11.10;8.87;;;15.00;99.90;;;;;;20998037;28;20246;-66
2022/05/05 21:59:07;;;;;;;12.23;8.10;;;14.80;99.90;;;;;;20998719;28;20207;-69
2022/05/05 22:09:09;;;;;;;12.40;8.40;;;14.70;99.90;;;;;;20998195;28;20245;-69
2022/05/05 22:19:10;;;;;;;14.67;8.13;;;14.70;99.90;;;;;;20994029;28;20240;-66
2022/05/05 22:29:13;;;;;;;11.27;7.83;;;14.60;99.90;;;;;;20997406;28;20284;-64
2022/05/05 22:39:15;;;;;;;14.23;7.30;;;14.50;99.90;;;;;;20996019;28;20213;-66
2022/05/05 22:59:38;;;;;;;12.70;6.73;;;14.30;99.70;;;;;;20995895;28;20202;-67
2022/05/05 23:09:40;;;;;;;12.07;7.07;;;14.10;99.60;;;;;;20994702;28;20255;-65
2022/05/05 23:19:42;;;;;;;9.83;6.80;;;14.10;99.70;;;;;;20994329;28;20231;-67
2022/05/05 23:29:45;;;;;;;7.70;5.70;;;14.20;99.60;;;;;;20994363;28;20638;-67
2022/05/05 23:39:47;;;;;;;17.57;6.10;;;14.30;99.10;;;;;;20993611;28;20676;-65
2022/05/05 23:49:49;;;;;;;13.33;6.73;;;14.20;98.50;;;;;;20993311;28;20235;-66
2022/05/05 23:59:50;;;;;;;11.70;6.73;;;14.10;99.00;;;;;;21000685;28;20212;-65
